Time;durP1;ratioP1;P1;durP2;ratioP2;P2;SDS_P1;SDS_P2;PMS_P1;PMS_P2;Temp;Humidity;BMP_temperature;BMP_pressure;BME280_temperature;BME280_humidity;BME280_pressure;Samples;Min_cycle;Max_cycle;Signal;HPM_P1;HPM_P2
2023/11/30 00:00:49;;;;;;;;;;;;;;;;;;5104902;28;19924;-72
2023/11/30 00:03:15;;;;;;;;;;;;;;;;;;5095040;28;20293;-72
2023/11/30 00:05:41;;;;;;;;;;;;;;;;;;5099795;28;19928;-72
2023/11/30 00:08:06;;;;;;;;;;;;;;;;;;5095654;28;19920;-72
2023/11/30 00:10:32;;;;;;;;;;;;;;;;;;5088042;28;19924;-72
2023/11/30 00:12:58;;;;;;;;;;;;;;;;;;5092700;28;19920;-72
2023/11/30 00:15:24;;;;;;;;;;;;;;;;;;5094818;28;20738;-72
2023/11/30 00:17:50;;;;;;;;;;;;;;;;;;5092955;28;19920;-72
2023/11/30 00:20:16;;;;;;;;;;;;;;;;;;5092104;28;19924;-72
2023/11/30 00:22:42;;;;;;;;;;;;;;;;;;5095614;28;20007;-72
2023/11/30 00:25:08;;;;;;;;;;;;;;;;;;5090742;28;19928;-72
2023/11/30 00:27:34;;;;;;;;;;;;;;;;;;5088262;28;19927;-72
2023/11/30 00:30:00;;;;;;;;;;;;;;;;;;5091902;28;19927;-72
2023/11/30 00:32:25;;;;;;;;;;;;;;;;;;5091035;28;19966;-72
2023/11/30 00:34:51;;;;;;;;;;;;;;;;;;5094042;28;19963;-72
2023/11/30 00:37:17;;;;;;;;;;;;;;;;;;5091874;28;19942;-72
2023/11/30 00:39:43;;;;;;;;;;;;;;;;;;5095132;28;19930;-72
2023/11/30 00:42:09;;;;;;;;;;;;;;;;;;5088576;28;19931;-72
2023/11/30 00:44:35;;;;;;;;;;;;;;;;;;5092210;28;19923;-72
2023/11/30 00:47:01;;;;;;;;;;;;;;;;;;5093448;28;19981;-73
2023/11/30 00:49:27;;;;;;;;;;;;;;;;;;5093477;28;19977;-72
2023/11/30 00:51:53;;;;;;;;;;;;;;;;;;5091926;28;19920;-72
2023/11/30 00:54:19;;;;;;;;;;;;;;;;;;5091761;28;19924;-72
2023/11/30 00:56:44;;;;;;;;;;;;;;;;;;5086672;28;20459;-72
2023/11/30 00:59:10;;;;;;;;;;;;;;;;;;5074490;28;20007;-73
2023/11/30 01:01:36;;;;;;;;;;;;;;;;;;5090125;28;19929;-73
2023/11/30 01:04:02;;;;;;;;;;;;;;;;;;5091514;28;19925;-72
2023/11/30 01:06:28;;;;;;;;;;;;;;;;;;5094916;28;19920;-72
2023/11/30 01:08:54;;;;;;;;;;;;;;;;;;5090716;28;19931;-72
2023/11/30 01:11:20;;;;;;;;;;;;;;;;;;5093894;28;19920;-72
2023/11/30 01:13:46;;;;;;;;;;;;;;;;;;5092747;28;19931;-73
2023/11/30 01:16:12;;;;;;;;;;;;;;;;;;5089345;28;19927;-72
2023/11/30 01:18:38;;;;;;;;;;;;;;;;;;5091535;28;19927;-73
2023/11/30 01:21:04;;;;;;;;;;;;;;;;;;5094253;28;19924;-72
2023/11/30 01:23:29;;;;;;;;;;;;;;;;;;5074197;28;20396;-72
2023/11/30 01:25:55;;;;;;;;;;;;;;;;;;5088570;28;20377;-72
2023/11/30 01:28:21;;;;;;;;;;;;;;;;;;5088447;28;19927;-72
2023/11/30 01:30:47;;;;;;;;;;;;;;;;;;5092671;28;19930;-72
2023/11/30 01:33:13;;;;;;;;;;;;;;;;;;5089848;28;20010;-72
2023/11/30 01:35:39;;;;;;;;;;;;;;;;;;5090311;28;20031;-72
2023/11/30 01:38:05;;;;;;;;;;;;;;;;;;5089366;28;19931;-73
2023/11/30 01:40:31;;;;;;;;;;;;;;;;;;5091767;28;19924;-72
2023/11/30 01:42:57;;;;;;;;;;;;;;;;;;5089776;28;20265;-72
2023/11/30 01:45:23;;;;;;;;;;;;;;;;;;5092198;28;20486;-73
2023/11/30 01:47:49;;;;;;;;;;;;;;;;;;5094259;28;19920;-72
2023/11/30 01:50:14;;;;;;;;;;;;;;;;;;5092963;28;19927;-72
2023/11/30 01:52:40;;;;;;;;;;;;;;;;;;5090931;28;20458;-72
2023/11/30 01:55:06;;;;;;;;;;;;;;;;;;5082462;28;19920;-73
2023/11/30 01:57:32;;;;;;;;;;;;;;;;;;5089036;28;20600;-73
2023/11/30 01:59:58;;;;;;;;;;;;;;;;;;5085570;28;19924;-72
2023/11/30 02:02:24;;;;;;;;;;;;;;;;;;5095594;28;19977;-73
2023/11/30 02:04:50;;;;;;;;;;;;;;;;;;5095322;28;20026;-72
2023/11/30 02:07:16;;;;;;;;;;;;;;;;;;5094169;28;19920;-72
2023/11/30 02:09:42;;;;;;;;;;;;;;;;;;5089979;28;19920;-72
2023/11/30 02:12:08;;;;;;;;;;;;;;;;;;5090791;28;19970;-72
2023/11/30 02:14:33;;;;;;;;;;;;;;;;;;5083104;28;19921;-72
2023/11/30 02:17:00;;;;;;;;;;;;;;;;;;5087571;28;20393;-72
2023/11/30 02:19:26;;;;;;;;;;;;;;;;;;5090576;28;19932;-72
2023/11/30 02:21:52;;;;;;;;;;;;;;;;;;5096782;28;20265;-72
2023/11/30 02:24:18;;;;;;;;;;;;;;;;;;5093054;28;19920;-72
2023/11/30 02:26:43;;;;;;;;;;;;;;;;;;5085178;28;19932;-73
2023/11/30 02:29:09;;;;;;;;;;;;;;;;;;5086071;28;20026;-72
2023/11/30 02:31:35;;;;;;;;;;;;;;;;;;5097459;28;19924;-72
2023/11/30 02:34:01;;;;;;;;;;;;;;;;;;5090527;28;19923;-72
2023/11/30 02:36:27;;;;;;;;;;;;;;;;;;5095671;28;20376;-72
2023/11/30 02:38:53;;;;;;;;;;;;;;;;;;5093965;28;19988;-72
2023/11/30 02:41:19;;;;;;;;;;;;;;;;;;5077369;28;19927;-73
2023/11/30 02:43:45;;;;;;;;;;;;;;;;;;5088313;28;20350;-72
2023/11/30 02:46:11;;;;;;;;;;;;;;;;;;5096205;28;19924;-72
2023/11/30 02:48:37;;;;;;;;;;;;;;;;;;5087935;28;19942;-72
2023/11/30 02:51:03;;;;;;;;;;;;;;;;;;5095289;28;20361;-72
2023/11/30 02:53:28;;;;;;;;;;;;;;;;;;5093107;28;19920;-72
2023/11/30 02:55:54;;;;;;;;;;;;;;;;;;5094867;28;19920;-72
2023/11/30 02:58:20;;;;;;;;;;;;;;;;;;5091190;28;19943;-72
2023/11/30 03:00:47;;;;;;;;;;;;;;;;;;5090970;28;19933;-72
2023/11/30 03:03:13;;;;;;;;;;;;;;;;;;5094397;28;19920;-72
2023/11/30 03:05:39;;;;;;;;;;;;;;;;;;5093721;28;19924;-72
2023/11/30 03:08:05;;;;;;;;;;;;;;;;;;5094723;28;19924;-72
2023/11/30 03:10:31;;;;;;;;;;;;;;;;;;5091899;28;19931;-72
2023/11/30 03:12:57;;;;;;;;;;;;;;;;;;5093007;28;19959;-72
2023/11/30 03:15:23;;;;;;;;;;;;;;;;;;5089202;28;19934;-72
2023/11/30 03:17:48;;;;;;;;;;;;;;;;;;5092817;28;19974;-72
2023/11/30 03:20:14;;;;;;;;;;;;;;;;;;5093263;28;20023;-72
2023/11/30 03:22:40;;;;;;;;;;;;;;;;;;5093085;28;20009;-72
2023/11/30 03:25:06;;;;;;;;;;;;;;;;;;5094533;28;20499;-72
2023/11/30 03:27:32;;;;;;;;;;;;;;;;;;5092576;28;19924;-72
2023/11/30 03:29:58;;;;;;;;;;;;;;;;;;5091685;28;19947;-72
2023/11/30 03:32:24;;;;;;;;;;;;;;;;;;5091353;28;19919;-72
2023/11/30 03:34:50;;;;;;;;;;;;;;;;;;5097945;28;19928;-72
2023/11/30 03:37:16;;;;;;;;;;;;;;;;;;5097321;28;20433;-72
2023/11/30 03:39:42;;;;;;;;;;;;;;;;;;5107028;22;19931;-64
2023/11/30 03:42:08;;;;;;;;;;;;;;;;;;5071049;28;19966;-66
2023/11/30 03:44:33;;;;;;;;;;;;;;;;;;5078508;28;19924;-66
2023/11/30 03:46:59;;;;;;;;;;;;;;;;;;5042189;28;19928;-65
2023/11/30 03:49:25;;;;;;;;;;;;;;;;;;5075835;28;19920;-66
2023/11/30 03:51:51;;;;;;;;;;;;;;;;;;5073082;28;19989;-66
2023/11/30 03:54:17;;;;;;;;;;;;;;;;;;5089175;28;20384;-66
2023/11/30 03:56:43;;;;;;;;;;;;;;;;;;5062476;28;19924;-66
2023/11/30 03:59:09;;;;;;;;;;;;;;;;;;5088094;28;19921;-66
2023/11/30 04:01:35;;;;;;;;;;;;;;;;;;5072633;28;20290;-65
2023/11/30 04:04:01;;;;;;;;;;;;;;;;;;5084631;28;19928;-65
2023/11/30 04:06:27;;;;;;;;;;;;;;;;;;5076059;28;19959;-65
2023/11/30 04:08:53;;;;;;;;;;;;;;;;;;5064818;28;20365;-66
2023/11/30 04:11:19;;;;;;;;;;;;;;;;;;5072286;28;20011;-66
2023/11/30 04:13:45;;;;;;;;;;;;;;;;;;5052905;28;19923;-66
2023/11/30 04:16:11;;;;;;;;;;;;;;;;;;5069984;28;19925;-66
2023/11/30 04:18:37;;;;;;;;;;;;;;;;;;5077071;28;19932;-65
2023/11/30 04:21:03;;;;;;;;;;;;;;;;;;5077748;28;20975;-66
2023/11/30 04:23:29;;;;;;;;;;;;;;;;;;5078456;28;19967;-66
2023/11/30 04:25:55;;;;;;;;;;;;;;;;;;5075420;28;19956;-66
2023/11/30 04:28:21;;;;;;;;;;;;;;;;;;5069740;28;20023;-66
2023/11/30 04:30:47;;;;;;;;;;;;;;;;;;5073427;28;20015;-66
2023/11/30 04:33:13;;;;;;;;;;;;;;;;;;5073312;28;20354;-65
2023/11/30 04:35:39;;;;;;;;;;;;;;;;;;5072990;28;19925;-65
2023/11/30 04:38:05;;;;;;;;;;;;;;;;;;5075607;28;20395;-66
2023/11/30 04:40:31;;;;;;;;;;;;;;;;;;5072262;28;20016;-66
2023/11/30 04:42:57;;;;;;;;;;;;;;;;;;5071627;28;19929;-66
2023/11/30 04:45:22;;;;;;;;;;;;;;;;;;5078048;28;19948;-66
2023/11/30 04:47:48;;;;;;;;;;;;;;;;;;5072321;28;20008;-65
2023/11/30 04:50:14;;;;;;;;;;;;;;;;;;5078493;28;19924;-66
2023/11/30 04:52:40;;;;;;;;;;;;;;;;;;5074312;28;19929;-66
2023/11/30 04:55:06;;;;;;;;;;;;;;;;;;5071963;28;19925;-65
2023/11/30 04:57:32;;;;;;;;;;;;;;;;;;5077252;28;19920;-65
2023/11/30 04:59:58;;;;;;;;;;;;;;;;;;5074368;28;20407;-65
2023/11/30 05:02:24;;;;;;;;;;;;;;;;;;5068826;28;19924;-66
2023/11/30 05:04:50;;;;;;;;;;;;;;;;;;5075177;28;19920;-65
2023/11/30 05:07:16;;;;;;;;;;;;;;;;;;5074044;28;19924;-65
2023/11/30 05:09:42;;;;;;;;;;;;;;;;;;5073773;28;19992;-65
2023/11/30 05:12:08;;;;;;;;;;;;;;;;;;5084718;28;19921;-65
2023/11/30 05:14:34;;;;;;;;;;;;;;;;;;5076917;28;20390;-65
2023/11/30 05:16:59;;;;;;;;;;;;;;;;;;5070833;28;19921;-66
2023/11/30 05:19:25;;;;;;;;;;;;;;;;;;5068816;28;19931;-65
2023/11/30 05:21:51;;;;;;;;;;;;;;;;;;5077876;28;19935;-65
2023/11/30 05:24:17;;;;;;;;;;;;;;;;;;5086155;28;20369;-65
2023/11/30 05:26:43;;;;;;;;;;;;;;;;;;5068672;28;19931;-65
2023/11/30 05:29:09;;;;;;;;;;;;;;;;;;5072102;28;19963;-64
2023/11/30 05:31:35;;;;;;;;;;;;;;;;;;5069369;28;19921;-65
2023/11/30 05:34:02;;;;;;;;;;;;;;;;;;5072340;28;20415;-65
2023/11/30 05:36:28;;;;;;;;;;;;;;;;;;5081693;28;19920;-65
2023/11/30 05:38:54;;;;;;;;;;;;;;;;;;5078309;28;19920;-65
2023/11/30 05:41:20;;;;;;;;;;;;;;;;;;5079324;28;20266;-66
2023/11/30 05:43:46;;;;;;;;;;;;;;;;;;5073956;28;19932;-65
2023/11/30 05:46:12;;;;;;;;;;;;;;;;;;5072609;28;20082;-65
2023/11/30 05:48:38;;;;;;;;;;;;;;;;;;5078393;28;19928;-65
2023/11/30 05:51:04;;;;;;;;;;;;;;;;;;5071966;28;20297;-65
2023/11/30 05:53:30;;;;;;;;;;;;;;;;;;5079091;28;19931;-65
2023/11/30 05:55:56;;;;;;;;;;;;;;;;;;5084931;28;19927;-65
2023/11/30 05:58:21;;;;;;;;;;;;;;;;;;5071689;28;19936;-65
2023/11/30 06:00:47;;;;;;;;;;;;;;;;;;5071815;28;19925;-65
2023/11/30 06:03:13;;;;;;;;;;;;;;;;;;5072281;28;19969;-65
2023/11/30 06:05:39;;;;;;;;;;;;;;;;;;5069912;28;19982;-65
2023/11/30 06:08:05;;;;;;;;;;;;;;;;;;5077296;28;19920;-64
2023/11/30 06:10:31;;;;;;;;;;;;;;;;;;5054815;28;19928;-65
2023/11/30 06:12:57;;;;;;;;;;;;;;;;;;5071913;28;19925;-65
2023/11/30 06:15:23;;;;;;;;;;;;;;;;;;5070700;28;19929;-65
2023/11/30 06:17:49;;;;;;;;;;;;;;;;;;5075391;28;19927;-65
2023/11/30 06:20:15;;;;;;;;;;;;;;;;;;5062816;28;19935;-64
2023/11/30 06:22:41;;;;;;;;;;;;;;;;;;5071184;28;19929;-64
2023/11/30 06:25:07;;;;;;;;;;;;;;;;;;5052467;28;19921;-65
2023/11/30 06:27:33;;;;;;;;;;;;;;;;;;5071038;28;19935;-65
2023/11/30 06:29:59;;;;;;;;;;;;;;;;;;5067770;28;19925;-64
2023/11/30 06:32:25;;;;;;;;;;;;;;;;;;5070657;28;20025;-65
2023/11/30 06:34:51;;;;;;;;;;;;;;;;;;5070250;28;20018;-65
2023/11/30 06:37:17;;;;;;;;;;;;;;;;;;5084463;28;19924;-65
2023/11/30 06:39:43;;;;;;;;;;;;;;;;;;5071589;28;19929;-65
2023/11/30 06:42:09;;;;;;;;;;;;;;;;;;5070246;28;19924;-65
2023/11/30 06:44:34;;;;;;;;;;;;;;;;;;5065912;28;20338;-65
2023/11/30 06:47:00;;;;;;;;;;;;;;;;;;5055687;28;19924;-64
2023/11/30 06:49:26;;;;;;;;;;;;;;;;;;5069972;28;19930;-65
2023/11/30 06:51:52;;;;;;;;;;;;;;;;;;5070461;28;19997;-65
2023/11/30 06:54:18;;;;;;;;;;;;;;;;;;5067275;28;19966;-64
2023/11/30 06:56:45;;;;;;;;;;;;;;;;;;5068701;28;20308;-65
2023/11/30 06:59:10;;;;;;;;;;;;;;;;;;5068592;28;19928;-64
2023/11/30 07:01:36;;;;;;;;;;;;;;;;;;5070166;28;19920;-64
2023/11/30 07:04:02;;;;;;;;;;;;;;;;;;5065722;28;20666;-64
2023/11/30 07:06:30;;;;;;;;;;;;;;;;;;5067812;28;19947;-65
2023/11/30 07:08:56;;;;;;;;;;;;;;;;;;5074721;28;19935;-65
2023/11/30 07:11:22;;;;;;;;;;;;;;;;;;5053502;28;20625;-65
2023/11/30 07:13:48;;;;;;;;;;;;;;;;;;5068827;28;20412;-65
2023/11/30 07:16:13;;;;;;;;;;;;;;;;;;5070611;28;20288;-65
2023/11/30 07:18:40;;;;;;;;;;;;;;;;;;5073152;28;19978;-65
2023/11/30 07:21:06;;;;;;;;;;;;;;;;;;5057582;28;19959;-65
2023/11/30 07:23:32;;;;;;;;;;;;;;;;;;5060273;28;20024;-64
2023/11/30 07:25:58;;;;;;;;;;;;;;;;;;5075429;28;19928;-64
2023/11/30 07:28:24;;;;;;;;;;;;;;;;;;5058621;28;20030;-65
2023/11/30 07:30:50;;;;;;;;;;;;;;;;;;5075273;28;20016;-65
2023/11/30 07:33:20;;;;;;;;;;;;;;;;;;5079767;28;19920;-64
2023/11/30 07:35:45;;;;;;;;;;;;;;;;;;5081291;28;20293;-64
2023/11/30 07:38:11;;;;;;;;;;;;;;;;;;5072582;28;19925;-64
2023/11/30 07:40:37;;;;;;;;;;;;;;;;;;5075474;28;19924;-65
2023/11/30 07:43:03;;;;;;;;;;;;;;;;;;5055007;28;19924;-65
2023/11/30 07:45:29;;;;;;;;;;;;;;;;;;5070702;28;19925;-65
2023/11/30 07:47:56;;;;;;;;;;;;;;;;;;5088743;28;19927;-65
2023/11/30 07:50:22;;;;;;;;;;;;;;;;;;5089005;28;19924;-65
2023/11/30 07:52:48;;;;;;;;;;;;;;;;;;5072906;28;19927;-65
2023/11/30 07:55:14;;;;;;;;;;;;;;;;;;5074909;28;20405;-66
2023/11/30 07:57:40;;;;;;;;;;;;;;;;;;5070979;28;19921;-66
2023/11/30 08:00:11;;;;;;;;;;;;;;;;;;5078785;28;19972;-66
2023/11/30 08:02:37;;;;;;;;;;;;;;;;;;5071551;28;19921;-65
2023/11/30 08:05:05;;;;;;;;;;;;;;;;;;5088855;28;19924;-65
2023/11/30 08:07:30;;;;;;;;;;;;;;;;;;5057921;28;19924;-64
2023/11/30 08:09:56;;;;;;;;;;;;;;;;;;5077996;28;21309;-65
2023/11/30 08:12:22;;;;;;;;;;;;;;;;;;5065593;28;19928;-64
2023/11/30 08:14:48;;;;;;;;;;;;;;;;;;5070960;28;19921;-65
2023/11/30 08:17:14;;;;;;;;;;;;;;;;;;5073196;28;19954;-65
2023/11/30 08:19:40;;;;;;;;;;;;;;;;;;5075274;28;19931;-66
2023/11/30 08:22:09;;;;;;;;;;;;;;;;;;5074288;28;19920;-65
2023/11/30 08:24:37;;;;;;;;;;;;;;;;;;5056745;28;20417;-65
2023/11/30 08:27:03;;;;;;;;;;;;;;;;;;5070841;28;19951;-66
2023/11/30 08:29:28;;;;;;;;;;;;;;;;;;5071571;28;19924;-64
2023/11/30 08:31:54;;;;;;;;;;;;;;;;;;5064406;28;20281;-65
2023/11/30 08:34:20;;;;;;;;;;;;;;;;;;5074116;28;19924;-65
2023/11/30 08:36:47;;;;;;;;;;;;;;;;;;5066679;28;19925;-65
2023/11/30 08:39:15;;;;;;;;;;;;;;;;;;5071925;28;19931;-65
2023/11/30 08:41:41;;;;;;;;;;;;;;;;;;5077367;28;20710;-66
2023/11/30 08:44:07;;;;;;;;;;;;;;;;;;5080514;28;19921;-65
2023/11/30 08:46:33;;;;;;;;;;;;;;;;;;5074039;28;19924;-65
2023/11/30 08:48:59;;;;;;;;;;;;;;;;;;5076372;28;19928;-65
2023/11/30 08:51:25;;;;;;;;;;;;;;;;;;5083325;28;19943;-66
2023/11/30 08:53:51;;;;;;;;;;;;;;;;;;5074896;28;19924;-66
2023/11/30 08:56:17;;;;;;;;;;;;;;;;;;5075741;28;19970;-66
2023/11/30 08:58:43;;;;;;;;;;;;;;;;;;5077236;28;20005;-66
2023/11/30 09:01:10;;;;;;;;;;;;;;;;;;5039176;28;19933;-66
2023/11/30 09:03:35;;;;;;;;;;;;;;;;;;5066861;28;20397;-66
2023/11/30 09:06:01;;;;;;;;;;;;;;;;;;5069478;28;19928;-66
2023/11/30 09:08:27;;;;;;;;;;;;;;;;;;5052239;28;20006;-66
2023/11/30 09:10:53;;;;;;;;;;;;;;;;;;5071671;28;19921;-66
2023/11/30 09:13:19;;;;;;;;;;;;;;;;;;5071511;28;20024;-66
2023/11/30 09:15:45;;;;;;;;;;;;;;;;;;5067599;28;19930;-66
2023/11/30 09:18:11;;;;;;;;;;;;;;;;;;5062225;28;19931;-66
2023/11/30 09:20:37;;;;;;;;;;;;;;;;;;5060252;28;19925;-66
2023/11/30 09:23:06;;;;;;;;;;;;;;;;;;5073738;28;19931;-66
2023/11/30 09:25:33;;;;;;;;;;;;;;;;;;5052957;28;19924;-68
2023/11/30 09:27:59;;;;;;;;;;;;;;;;;;5073304;28;20370;-67
2023/11/30 09:30:26;;;;;;;;;;;;;;;;;;5063415;28;19935;-66
2023/11/30 09:32:55;;;;;;;;;;;;;;;;;;5074432;28;19940;-66
2023/11/30 09:35:24;;;;;;;;;;;;;;;;;;5071492;28;19927;-66
2023/11/30 09:37:50;;;;;;;;;;;;;;;;;;5083700;28;19924;-66
2023/11/30 09:40:16;;;;;;;;;;;;;;;;;;5067146;28;19936;-66
2023/11/30 09:42:41;;;;;;;;;;;;;;;;;;5066779;28;20480;-67
2023/11/30 09:45:07;;;;;;;;;;;;;;;;;;5069106;28;19928;-66
2023/11/30 09:47:33;;;;;;;;;;;;;;;;;;5070798;28;19932;-67
2023/11/30 09:50:00;;;;;;;;;;;;;;;;;;5048142;28;19921;-66
2023/11/30 09:52:26;;;;;;;;;;;;;;;;;;5072634;28;20468;-67
2023/11/30 09:54:55;;;;;;;;;;;;;;;;;;5084216;28;19924;-66
2023/11/30 09:57:23;;;;;;;;;;;;;;;;;;5071451;28;19961;-67
2023/11/30 09:59:49;;;;;;;;;;;;;;;;;;5069580;28;20274;-66
2023/11/30 10:02:15;;;;;;;;;;;;;;;;;;5068539;28;19920;-66
2023/11/30 10:04:40;;;;;;;;;;;;;;;;;;5068821;28;19920;-67
2023/11/30 10:07:07;;;;;;;;;;;;;;;;;;5070710;28;20490;-66
2023/11/30 10:09:33;;;;;;;;;;;;;;;;;;5069757;28;19935;-66
2023/11/30 10:11:59;;;;;;;;;;;;;;;;;;5069112;28;19921;-66
2023/11/30 10:14:24;;;;;;;;;;;;;;;;;;5068106;28;20586;-66
2023/11/30 10:16:50;;;;;;;;;;;;;;;;;;5070220;28;20574;-66
2023/11/30 10:19:16;;;;;;;;;;;;;;;;;;5072838;28;19924;-66
2023/11/30 10:21:42;;;;;;;;;;;;;;;;;;5073722;28;19968;-66
2023/11/30 10:24:08;;;;;;;;;;;;;;;;;;5086130;28;21121;-66
2023/11/30 10:26:34;;;;;;;;;;;;;;;;;;5078428;28;20018;-67
2023/11/30 10:29:02;;;;;;;;;;;;;;;;;;5053682;28;20286;-66
2023/11/30 10:31:28;;;;;;;;;;;;;;;;;;5052412;28;19925;-66
2023/11/30 10:33:54;;;;;;;;;;;;;;;;;;5083433;28;19921;-67
2023/11/30 10:36:22;;;;;;;;;;;;;;;;;;5066752;28;20125;-66
2023/11/30 10:38:48;;;;;;;;;;;;;;;;;;5074638;28;20529;-66
2023/11/30 10:41:14;;;;;;;;;;;;;;;;;;5071542;28;19934;-67
2023/11/30 10:43:40;;;;;;;;;;;;;;;;;;5084250;28;20394;-66
2023/11/30 10:46:07;;;;;;;;;;;;;;;;;;5080879;28;19920;-66
2023/11/30 10:48:33;;;;;;;;;;;;;;;;;;5067122;28;19928;-66
2023/11/30 10:51:00;;;;;;;;;;;;;;;;;;5077158;28;19920;-66
2023/11/30 10:53:26;;;;;;;;;;;;;;;;;;5083729;28;19978;-66
2023/11/30 10:55:52;;;;;;;;;;;;;;;;;;5068847;28;19920;-67
2023/11/30 10:58:18;;;;;;;;;;;;;;;;;;5083566;28;19974;-66
2023/11/30 11:00:44;;;;;;;;;;;;;;;;;;5060835;28;20014;-66
2023/11/30 11:03:09;;;;;;;;;;;;;;;;;;5044574;28;19936;-68
2023/11/30 11:05:35;;;;;;;;;;;;;;;;;;5050293;28;20342;-67
2023/11/30 11:08:02;;;;;;;;;;;;;;;;;;5076303;28;19963;-67
2023/11/30 11:10:28;;;;;;;;;;;;;;;;;;5074259;28;19977;-68
2023/11/30 11:12:54;;;;;;;;;;;;;;;;;;5070133;28;19962;-68
2023/11/30 11:15:19;;;;;;;;;;;;;;;;;;5065852;28;19920;-67
2023/11/30 11:17:45;;;;;;;;;;;;;;;;;;5069468;28;20371;-67
2023/11/30 11:20:11;;;;;;;;;;;;;;;;;;5072910;28;19932;-67
2023/11/30 11:22:37;;;;;;;;;;;;;;;;;;5075256;28;19920;-67
2023/11/30 11:25:03;;;;;;;;;;;;;;;;;;5057484;28;19920;-67
2023/11/30 11:27:29;;;;;;;;;;;;;;;;;;5072017;28;20661;-67
2023/11/30 11:29:55;;;;;;;;;;;;;;;;;;5074244;28;19932;-67
2023/11/30 11:32:21;;;;;;;;;;;;;;;;;;5074126;28;20308;-67
2023/11/30 11:34:47;;;;;;;;;;;;;;;;;;5070201;28;19924;-67
2023/11/30 11:37:13;;;;;;;;;;;;;;;;;;5070542;28;19982;-66
2023/11/30 11:39:41;;;;;;;;;;;;;;;;;;5075445;28;19927;-67
2023/11/30 11:42:07;;;;;;;;;;;;;;;;;;5074992;28;19928;-67
2023/11/30 11:44:33;;;;;;;;;;;;;;;;;;5077079;28;19927;-66
2023/11/30 11:46:59;;;;;;;;;;;;;;;;;;5075401;28;19920;-67
2023/11/30 11:49:25;;;;;;;;;;;;;;;;;;5078827;28;19924;-66
2023/11/30 11:51:53;;;;;;;;;;;;;;;;;;5087276;28;20274;-67
2023/11/30 11:54:19;;;;;;;;;;;;;;;;;;5083240;28;19924;-67
2023/11/30 11:56:45;;;;;;;;;;;;;;;;;;5076972;28;20396;-66
2023/11/30 11:59:11;;;;;;;;;;;;;;;;;;5090047;28;19978;-67
2023/11/30 12:01:37;;;;;;;;;;;;;;;;;;5085003;28;20056;-67
2023/11/30 12:04:03;;;;;;;;;;;;;;;;;;5079448;28;19937;-67
2023/11/30 12:06:29;;;;;;;;;;;;;;;;;;5064908;28;19920;-67
2023/11/30 12:08:54;;;;;;;;;;;;;;;;;;5081977;28;19924;-66
2023/11/30 12:11:20;;;;;;;;;;;;;;;;;;5074370;28;19924;-66
2023/11/30 12:13:46;;;;;;;;;;;;;;;;;;5068695;28;19924;-67
2023/11/30 12:16:12;;;;;;;;;;;;;;;;;;5052625;28;19931;-67
2023/11/30 12:18:38;;;;;;;;;;;;;;;;;;5080409;28;19982;-67
2023/11/30 12:21:04;;;;;;;;;;;;;;;;;;5064774;28;19928;-66
2023/11/30 12:23:30;;;;;;;;;;;;;;;;;;5072356;28;19932;-66
2023/11/30 12:25:56;;;;;;;;;;;;;;;;;;5071104;28;19942;-67
2023/11/30 12:28:22;;;;;;;;;;;;;;;;;;5071238;28;19931;-67
2023/11/30 12:30:48;;;;;;;;;;;;;;;;;;5072260;28;19924;-67
2023/11/30 12:33:14;;;;;;;;;;;;;;;;;;5069095;28;19999;-67
2023/11/30 12:35:40;;;;;;;;;;;;;;;;;;5069581;28;19921;-67
2023/11/30 12:38:06;;;;;;;;;;;;;;;;;;5074937;28;19921;-66
2023/11/30 12:40:31;;;;;;;;;;;;;;;;;;5070650;28;19928;-67
2023/11/30 12:42:57;;;;;;;;;;;;;;;;;;5070702;28;19920;-67
2023/11/30 12:45:23;;;;;;;;;;;;;;;;;;5072461;28;19927;-67
2023/11/30 12:47:49;;;;;;;;;;;;;;;;;;5068505;28;19920;-67
2023/11/30 12:50:15;;;;;;;;;;;;;;;;;;5071775;28;19924;-68
2023/11/30 12:52:41;;;;;;;;;;;;;;;;;;5088288;28;19935;-68
2023/11/30 12:55:08;;;;;;;;;;;;;;;;;;5074288;28;19921;-68
2023/11/30 12:57:34;;;;;;;;;;;;;;;;;;5073841;28;19950;-68
2023/11/30 13:00:00;;;;;;;;;;;;;;;;;;5085017;28;20365;-68
2023/11/30 13:02:27;;;;;;;;;;;;;;;;;;5069899;28;19928;-68
2023/11/30 13:04:53;;;;;;;;;;;;;;;;;;5088264;28;19921;-67
2023/11/30 13:07:19;;;;;;;;;;;;;;;;;;5072337;28;20304;-68
2023/11/30 13:09:45;;;;;;;;;;;;;;;;;;5079330;28;19924;-67
2023/11/30 13:12:11;;;;;;;;;;;;;;;;;;5083504;28;20016;-68
2023/11/30 13:14:37;;;;;;;;;;;;;;;;;;5078166;28;20019;-67
2023/11/30 13:17:04;;;;;;;;;;;;;;;;;;5075295;28;19921;-68
2023/11/30 13:19:30;;;;;;;;;;;;;;;;;;5078108;28;19928;-68
2023/11/30 13:21:56;;;;;;;;;;;;;;;;;;5071268;28;19925;-68
2023/11/30 13:24:22;;;;;;;;;;;;;;;;;;5087413;28;19921;-68
2023/11/30 13:26:48;;;;;;;;;;;;;;;;;;5072187;28;19925;-67
2023/11/30 13:29:14;;;;;;;;;;;;;;;;;;5048777;28;19935;-68
2023/11/30 13:31:40;;;;;;;;;;;;;;;;;;5064425;28;20019;-68
2023/11/30 13:34:06;;;;;;;;;;;;;;;;;;5065976;28;20014;-67
2023/11/30 13:36:32;;;;;;;;;;;;;;;;;;5055595;28;19928;-68
2023/11/30 13:38:59;;;;;;;;;;;;;;;;;;5076181;28;19990;-68
2023/11/30 13:41:25;;;;;;;;;;;;;;;;;;5056191;28;20397;-68
2023/11/30 13:43:51;;;;;;;;;;;;;;;;;;5057938;28;19921;-68
2023/11/30 13:46:18;;;;;;;;;;;;;;;;;;5084157;28;19928;-68
2023/11/30 13:48:44;;;;;;;;;;;;;;;;;;5051563;28;19924;-68
2023/11/30 13:51:10;;;;;;;;;;;;;;;;;;5073974;28;19970;-68
2023/11/30 13:53:36;;;;;;;;;;;;;;;;;;5055477;28;20667;-68
2023/11/30 13:56:02;;;;;;;;;;;;;;;;;;5073111;28;19925;-68
2023/11/30 13:58:28;;;;;;;;;;;;;;;;;;5072327;28;20413;-69
2023/11/30 14:00:54;;;;;;;;;;;;;;;;;;5054495;28;19924;-68
2023/11/30 14:03:20;;;;;;;;;;;;;;;;;;5034821;28;20022;-68
2023/11/30 14:05:46;;;;;;;;;;;;;;;;;;5074000;28;19989;-68
2023/11/30 14:08:11;;;;;;;;;;;;;;;;;;5074839;28;20291;-68
2023/11/30 14:10:38;;;;;;;;;;;;;;;;;;5073087;28;20297;-68
2023/11/30 14:13:04;;;;;;;;;;;;;;;;;;5057129;28;20309;-68
2023/11/30 14:15:30;;;;;;;;;;;;;;;;;;5072085;28;19925;-67
2023/11/30 14:17:56;;;;;;;;;;;;;;;;;;5057188;28;19927;-68
2023/11/30 14:20:22;;;;;;;;;;;;;;;;;;5047447;28;19935;-68
2023/11/30 14:22:48;;;;;;;;;;;;;;;;;;5068494;28;19920;-70
2023/11/30 14:25:14;;;;;;;;;;;;;;;;;;5072243;28;19921;-68
2023/11/30 14:27:40;;;;;;;;;;;;;;;;;;5066156;28;20278;-68
2023/11/30 14:30:09;;;;;;;;;;;;;;;;;;5066057;28;19924;-69
2023/11/30 14:32:35;;;;;;;;;;;;;;;;;;5073564;28;19931;-68
2023/11/30 14:35:01;;;;;;;;;;;;;;;;;;5072303;28;20021;-68
2023/11/30 14:37:28;;;;;;;;;;;;;;;;;;5077086;28;20335;-68
2023/11/30 14:39:54;;;;;;;;;;;;;;;;;;5057949;28;19928;-68
2023/11/30 14:42:20;;;;;;;;;;;;;;;;;;5063876;28;19971;-68
2023/11/30 14:44:47;;;;;;;;;;;;;;;;;;5067294;28;19924;-69
2023/11/30 14:47:13;;;;;;;;;;;;;;;;;;5065038;28;19920;-68
2023/11/30 14:49:39;;;;;;;;;;;;;;;;;;5073289;28;20342;-68
2023/11/30 14:52:09;;;;;;;;;;;;;;;;;;5052341;28;20023;-68
2023/11/30 14:54:37;;;;;;;;;;;;;;;;;;5057011;28;19934;-68
2023/11/30 14:57:04;;;;;;;;;;;;;;;;;;5081749;28;19921;-68
2023/11/30 14:59:31;;;;;;;;;;;;;;;;;;5063601;28;20359;-68
2023/11/30 15:01:57;;;;;;;;;;;;;;;;;;5059363;28;20395;-68
2023/11/30 15:04:23;;;;;;;;;;;;;;;;;;5077373;28;19972;-67
2023/11/30 15:06:49;;;;;;;;;;;;;;;;;;5076530;28;19926;-68
2023/11/30 15:09:15;;;;;;;;;;;;;;;;;;5073811;28;19962;-68
2023/11/30 15:11:41;;;;;;;;;;;;;;;;;;5075942;28;19924;-68
2023/11/30 15:14:07;;;;;;;;;;;;;;;;;;5073771;28;20011;-68
2023/11/30 15:16:32;;;;;;;;;;;;;;;;;;5082508;28;19924;-68
2023/11/30 15:18:59;;;;;;;;;;;;;;;;;;5068308;28;20027;-68
2023/11/30 15:21:25;;;;;;;;;;;;;;;;;;5080987;28;19943;-67
2023/11/30 15:23:52;;;;;;;;;;;;;;;;;;5072369;28;20290;-68
2023/11/30 15:26:18;;;;;;;;;;;;;;;;;;5073361;28;20385;-68
2023/11/30 15:28:44;;;;;;;;;;;;;;;;;;5070226;28;19920;-69
2023/11/30 15:31:10;;;;;;;;;;;;;;;;;;5068115;28;19920;-68
2023/11/30 15:33:35;;;;;;;;;;;;;;;;;;5086067;28;20350;-68
2023/11/30 15:36:01;;;;;;;;;;;;;;;;;;5084621;28;19936;-68
2023/11/30 15:38:32;;;;;;;;;;;;;;;;;;5085178;28;19959;-68
2023/11/30 15:40:58;;;;;;;;;;;;;;;;;;5071450;28;19928;-69
2023/11/30 15:43:24;;;;;;;;;;;;;;;;;;5081656;28;19920;-69
2023/11/30 15:45:50;;;;;;;;;;;;;;;;;;5064871;28;19927;-68
2023/11/30 15:48:16;;;;;;;;;;;;;;;;;;5075557;28;19924;-69
2023/11/30 15:50:42;;;;;;;;;;;;;;;;;;5088499;28;19920;-68
2023/11/30 15:53:08;;;;;;;;;;;;;;;;;;5081062;28;19924;-68
2023/11/30 15:55:34;;;;;;;;;;;;;;;;;;5106867;22;19923;-69
2023/11/30 15:58:00;;;;;;;;;;;;;;;;;;5125013;27;20269;-71
2023/11/30 16:00:26;;;;;;;;;;;;;;;;;;5127765;27;19927;-71
2023/11/30 16:02:52;;;;;;;;;;;;;;;;;;5123343;27;19923;-71
2023/11/30 16:05:18;;;;;;;;;;;;;;;;;;5125436;27;19919;-70
2023/11/30 16:07:44;;;;;;;;;;;;;;;;;;5127083;27;19924;-71
2023/11/30 16:10:10;;;;;;;;;;;;;;;;;;5106636;28;19919;-71
2023/11/30 16:12:36;;;;;;;;;;;;;;;;;;5131360;27;19933;-71
2023/11/30 16:15:02;;;;;;;;;;;;;;;;;;5129395;27;20010;-71
2023/11/30 16:17:28;;;;;;;;;;;;;;;;;;5128222;27;20431;-70
2023/11/30 16:19:54;;;;;;;;;;;;;;;;;;5122031;27;19919;-71
2023/11/30 16:22:20;;;;;;;;;;;;;;;;;;5121933;27;19953;-72
2023/11/30 16:24:49;;;;;;;;;;;;;;;;;;5127828;27;19930;-71
2023/11/30 16:27:15;;;;;;;;;;;;;;;;;;5103931;27;20014;-71
2023/11/30 16:29:41;;;;;;;;;;;;;;;;;;5128015;27;20030;-71
2023/11/30 16:32:07;;;;;;;;;;;;;;;;;;5131684;27;19923;-70
2023/11/30 16:34:33;;;;;;;;;;;;;;;;;;5132110;27;19923;-70
2023/11/30 16:36:59;;;;;;;;;;;;;;;;;;5124447;27;19933;-71